Time;durP1;ratioP1;P1;durP2;ratioP2;P2;SDS_P1;SDS_P2;PMS_P1;PMS_P2;Temp;Humidity;BMP_temperature;BMP_pressure;BME280_temperature;BME280_humidity;BME280_pressure;Samples;Min_cycle;Max_cycle;Signal;HPM_P1;HPM_P2
2023/05/20 00:01:34;;;;;;;4.85;2.28;;;10.30;99.90;;;-148.53;100.00;63986.66;5067341;28;20036;-78
2023/05/20 00:04:00;;;;;;;4.65;2.20;;;10.30;99.90;;;-148.53;100.00;63986.66;5057070;28;20036;-78
2023/05/20 00:06:31;;;;;;;5.38;2.30;;;10.20;99.90;;;-148.53;100.00;63986.66;5057600;28;20036;-79
2023/05/20 00:08:58;;;;;;;5.15;2.38;;;10.10;99.90;;;-148.53;100.00;63986.66;5055948;28;20514;-78
2023/05/20 00:11:25;;;;;;;5.10;2.80;;;10.00;99.90;;;-148.53;100.00;63986.66;5059580;28;20029;-78
2023/05/20 00:13:51;;;;;;;5.45;2.35;;;10.00;99.90;;;-148.53;100.00;63986.66;5063213;28;20028;-78
2023/05/20 00:16:17;;;;;;;5.20;2.50;;;9.90;99.90;;;-148.53;100.00;63986.66;5061429;28;20033;-78
2023/05/20 00:18:43;;;;;;;6.57;2.47;;;9.80;99.90;;;-148.53;100.00;63986.66;5059670;28;20048;-79
2023/05/20 00:21:10;;;;;;;4.32;2.40;;;9.80;99.90;;;-148.53;100.00;63986.66;5058537;28;20037;-78
2023/05/20 00:23:39;;;;;;;4.30;2.35;;;9.80;99.90;;;-148.53;100.00;63986.66;5059250;28;20055;-78
2023/05/20 00:26:06;;;;;;;3.45;2.20;;;9.70;99.90;;;-148.53;100.00;63986.66;5039475;28;20458;-77
2023/05/20 00:28:32;;;;;;;4.35;2.45;;;9.60;99.90;;;-148.53;100.00;63986.66;5055234;28;20049;-78
2023/05/20 00:30:57;;;;;;;6.25;2.55;;;9.50;99.90;;;-148.53;100.00;63986.66;5057240;28;20321;-77
2023/05/20 00:33:23;;;;;;;4.72;2.30;;;9.40;99.90;;;-148.53;100.00;63986.66;5056565;28;20516;-77
2023/05/20 00:35:49;;;;;;;4.75;2.50;;;9.30;99.90;;;-148.53;100.00;63986.66;5055480;28;20480;-78
2023/05/20 00:38:14;;;;;;;4.30;2.42;;;9.40;99.90;;;-148.53;100.00;63986.66;5064580;28;20051;-78
2023/05/20 00:40:40;;;;;;;5.10;2.35;;;9.50;99.90;;;-148.53;100.00;63986.66;5071015;28;20052;-78
2023/05/20 00:43:08;;;;;;;6.65;2.38;;;9.50;99.90;;;-148.53;100.00;63986.66;5075109;28;20211;-78
2023/05/20 00:45:34;;;;;;;4.28;2.30;;;9.50;99.90;;;-148.53;100.00;63986.66;5054604;28;20055;-78
2023/05/20 00:48:02;;;;;;;4.18;2.20;;;9.50;99.90;;;-148.53;100.00;63986.66;5061901;28;20029;-77
2023/05/20 00:50:28;;;;;;;;;;;9.50;99.90;;;-148.53;100.00;63986.66;5063761;28;20075;-77
2023/05/20 00:52:54;;;;;;;5.65;2.03;;;9.40;99.90;;;-148.53;100.00;63986.66;5062781;28;19943;-78
2023/05/20 00:55:21;;;;;;;5.28;2.33;;;9.20;99.90;;;-148.53;100.00;63986.66;5048878;28;20028;-78
2023/05/20 00:57:48;;;;;;;6.03;2.45;;;9.20;99.90;;;-148.53;100.00;63986.66;5056050;28;20418;-78
2023/05/20 01:00:17;;;;;;;3.95;1.92;;;9.20;99.90;;;-148.53;100.00;63986.66;5066119;28;20079;-78
2023/05/20 01:02:43;;;;;;;5.70;2.67;;;9.20;99.90;;;-148.53;100.00;63986.66;5055593;28;20196;-78
2023/05/20 01:05:10;;;;;;;3.28;2.10;;;9.20;99.90;;;-148.53;100.00;63986.66;5031837;28;20067;-78
2023/05/20 01:07:37;;;;;;;5.63;2.40;;;9.20;99.90;;;-148.53;100.00;63986.66;5062345;28;20045;-78
2023/05/20 01:10:03;;;;;;;4.40;2.35;;;9.10;99.90;;;-148.53;100.00;63986.66;5043946;28;20472;-78
2023/05/20 01:12:47;;;;;;;3.95;1.95;;;9.10;99.90;;;-148.53;100.00;63986.66;5055784;28;20090;-79
2023/05/20 01:15:15;;;;;;;5.07;1.95;;;9.10;99.90;;;-148.53;100.00;63986.66;5061179;28;20496;-79
2023/05/20 01:17:53;;;;;;;4.70;2.20;;;9.10;99.90;;;-148.53;100.00;63986.66;5062386;28;20088;-79
2023/05/20 01:20:20;;;;;;;4.72;2.17;;;9.00;99.90;;;-148.53;100.00;63986.66;5057330;28;20048;-78
2023/05/20 01:22:55;;;;;;;5.23;2.20;;;9.10;99.90;;;-148.53;100.00;63986.66;5070003;28;20052;-78
2023/05/20 01:25:25;;;;;;;3.78;2.17;;;9.20;99.90;;;-148.53;100.00;63986.66;5080386;28;20048;-78
2023/05/20 01:27:54;;;;;;;4.68;1.83;;;9.20;99.90;;;-148.53;100.00;63986.66;5071376;28;20083;-79
2023/05/20 01:30:20;;;;;;;3.80;1.95;;;9.10;99.90;;;-148.53;100.00;63986.66;5071888;28;20041;-78
2023/05/20 01:32:56;;;;;;;3.80;1.98;;;9.10;99.90;;;-148.53;100.00;63986.66;5079386;28;20068;-77
2023/05/20 01:35:23;;;;;;;5.57;1.98;;;9.00;99.90;;;-148.53;100.00;63986.66;5061444;28;20064;-79
2023/05/20 01:37:52;;;;;;;7.20;2.10;;;8.90;99.90;;;-148.53;100.00;63986.66;5065535;28;20025;-79
2023/05/20 01:40:20;;;;;;;4.53;1.92;;;9.00;99.90;;;-148.53;100.00;63986.66;5079533;28;20049;-79
2023/05/20 01:42:51;;;;;;;5.13;2.00;;;9.00;99.90;;;-148.53;100.00;63986.66;5080145;28;20041;-77
2023/05/20 01:45:18;;;;;;;3.75;1.83;;;8.90;99.90;;;-148.53;100.00;63986.66;5074353;28;20025;-79
2023/05/20 01:47:47;;;;;;;6.82;1.85;;;8.90;99.90;;;-148.53;100.00;63986.66;5061620;28;20052;-80
2023/05/20 01:50:13;;;;;;;4.75;2.00;;;8.80;99.90;;;-148.53;100.00;63986.66;5075525;28;20110;-79
2023/05/20 01:52:39;;;;;;;4.07;2.17;;;8.80;99.90;;;-148.53;100.00;63986.66;5073543;28;20040;-79
2023/05/20 01:55:05;;;;;;;4.07;1.80;;;8.90;99.90;;;-148.53;100.00;63986.66;5077160;28;20435;-80
2023/05/20 01:57:30;;;;;;;2.58;1.50;;;8.90;99.90;;;-148.53;100.00;63986.66;5093448;28;20061;-78
2023/05/20 01:59:56;;;;;;;5.55;1.92;;;8.80;99.90;;;-148.53;100.00;63986.66;5083409;28;20104;-79
2023/05/20 02:02:22;;;;;;;4.75;1.90;;;8.70;99.90;;;-148.53;100.00;63986.66;5070681;28;20051;-79
2023/05/20 02:04:50;;;;;;;3.70;1.90;;;8.70;99.90;;;-148.53;100.00;63986.66;5079691;28;20032;-78
2023/05/20 02:07:20;;;;;;;;;;;8.70;99.90;;;-148.53;100.00;63986.66;5082428;28;20029;-78
2023/05/20 02:09:46;;;;;;;;;;;8.70;99.90;;;-148.53;100.00;63986.66;5084063;28;19926;-78
2023/05/20 02:12:15;;;;;;;5.20;2.05;;;8.70;99.90;;;-148.53;100.00;63986.66;5105064;28;19928;-78
2023/05/20 02:14:49;;;;;;;4.47;1.95;;;8.70;99.90;;;-148.53;100.00;63986.66;5083073;28;20029;-79
2023/05/20 02:17:16;;;;;;;4.35;1.75;;;8.70;99.90;;;-148.53;100.00;63986.66;5075997;28;20028;-79
2023/05/20 02:19:44;;;;;;;4.25;1.80;;;8.70;99.90;;;-148.53;100.00;63986.66;5054579;28;20033;-78
2023/05/20 02:22:11;;;;;;;3.97;1.88;;;8.60;99.90;;;-148.53;100.00;63986.66;5059911;28;20090;-79
2023/05/20 02:24:37;;;;;;;3.80;1.80;;;8.70;99.90;;;-148.53;100.00;63986.66;5051007;28;20064;-79
2023/05/20 02:27:05;;;;;;;4.63;2.10;;;8.70;99.90;;;-148.53;100.00;63986.66;5055169;28;20079;-78
2023/05/20 02:29:32;;;;;;;3.45;1.85;;;8.60;99.90;;;-148.53;100.00;63986.66;5058578;28;20497;-79
2023/05/20 02:31:58;;;;;;;3.58;1.85;;;8.50;99.90;;;-148.53;100.00;63986.66;5051603;28;20044;-79
2023/05/20 02:34:25;;;;;;;5.38;2.03;;;8.60;99.90;;;-148.53;100.00;63986.66;5059765;28;20036;-79
2023/05/20 02:36:51;;;;;;;3.65;1.95;;;8.60;99.90;;;-148.53;100.00;63986.66;5057714;28;20051;-79
2023/05/20 02:39:17;;;;;;;6.60;2.00;;;8.60;99.90;;;-148.53;100.00;63986.66;5054037;28;20029;-79
2023/05/20 02:41:43;;;;;;;4.03;1.95;;;8.60;99.90;;;-148.53;100.00;63986.66;5052901;28;20071;-79
2023/05/20 02:44:10;;;;;;;4.85;2.00;;;8.60;99.90;;;-148.53;100.00;63986.66;5056368;28;20033;-79
2023/05/20 02:46:35;;;;;;;3.67;1.88;;;8.70;99.90;;;-148.53;100.00;63986.66;5057456;28;20396;-79
2023/05/20 02:49:01;;;;;;;3.70;1.90;;;8.80;99.90;;;-148.53;100.00;63986.66;5059141;28;20033;-80
2023/05/20 02:51:27;;;;;;;3.28;1.95;;;8.80;99.90;;;-148.53;100.00;63986.66;5054546;28;20083;-79
2023/05/20 02:53:53;;;;;;;4.72;1.88;;;8.90;99.90;;;-148.53;100.00;63986.66;5063645;28;20036;-78
2023/05/20 02:56:20;;;;;;;3.58;1.90;;;8.90;99.90;;;-148.53;100.00;63986.66;5050541;28;20025;-79
2023/05/20 02:58:47;;;;;;;3.37;2.10;;;9.00;99.90;;;-148.53;100.00;63986.66;5054445;28;20119;-78
2023/05/20 03:01:14;;;;;;;4.18;1.95;;;9.00;99.90;;;-148.53;100.00;63986.66;5043890;28;20286;-79
2023/05/20 03:03:41;;;;;;;3.87;1.83;;;9.00;99.90;;;-148.53;100.00;63986.66;5066054;28;20060;-79
2023/05/20 03:06:08;;;;;;;4.50;1.88;;;9.10;99.90;;;-148.53;100.00;63986.66;5053422;28;20511;-79
2023/05/20 03:08:35;;;;;;;4.55;2.00;;;9.10;99.90;;;-148.53;100.00;63986.66;5052530;28;20029;-77
2023/05/20 03:11:01;;;;;;;4.88;2.00;;;9.20;99.90;;;-148.53;100.00;63986.66;5052693;28;20059;-78
2023/05/20 03:13:27;;;;;;;3.58;2.05;;;9.30;99.90;;;-148.53;100.00;63986.66;5057515;28;20033;-79
2023/05/20 03:15:53;;;;;;;5.93;2.30;;;9.30;99.90;;;-148.53;100.00;63986.66;5039709;28;20414;-79
2023/05/20 03:18:19;;;;;;;4.38;1.95;;;9.40;99.90;;;-148.53;100.00;63986.66;5053002;28;20029;-78
2023/05/20 03:20:48;;;;;;;3.78;1.90;;;9.40;99.90;;;-148.53;100.00;63986.66;5051538;28;20446;-78
2023/05/20 03:23:13;;;;;;;4.55;2.10;;;9.40;99.90;;;-148.53;100.00;63986.66;5065627;28;20036;-79
2023/05/20 03:25:40;;;;;;;5.88;2.30;;;9.40;99.90;;;-148.53;100.00;63986.66;5067794;28;20037;-79
2023/05/20 03:28:07;;;;;;;7.25;2.28;;;9.40;99.90;;;-148.53;100.00;63986.66;5059077;28;20396;-79
2023/05/20 03:30:35;;;;;;;;;;;9.40;99.90;;;-148.53;100.00;63986.66;5068465;28;20502;-79
2023/05/20 03:33:01;;;;;;;4.53;1.88;;;9.40;99.90;;;-148.53;100.00;63986.66;5060434;28;19924;-80
2023/05/20 03:35:27;;;;;;;5.38;2.20;;;9.40;99.90;;;-148.53;100.00;63986.66;5052117;28;20078;-78
2023/05/20 03:37:54;;;;;;;4.40;2.25;;;9.50;99.90;;;-148.53;100.00;63986.66;5061132;28;20502;-78
2023/05/20 03:40:22;;;;;;;3.40;1.90;;;9.60;99.90;;;-148.53;100.00;63986.66;5064918;28;20120;-77
2023/05/20 03:42:49;;;;;;;4.93;1.80;;;9.60;99.90;;;-148.53;100.00;63986.66;5067424;28;20579;-79
2023/05/20 03:45:16;;;;;;;3.28;1.98;;;9.70;99.90;;;-148.53;100.00;63986.66;5050528;28;20069;-78
2023/05/20 03:47:59;;;;;;;4.28;2.40;;;9.80;99.90;;;-148.53;100.00;63986.66;5054560;28;20505;-78
2023/05/20 03:50:26;;;;;;;4.18;2.17;;;9.80;99.90;;;-148.53;100.00;63986.66;5050548;28;20057;-78
2023/05/20 03:52:52;;;;;;;3.85;2.28;;;9.90;99.90;;;-148.53;100.00;63986.66;5052307;28;20048;-78
2023/05/20 03:55:21;;;;;;;4.25;2.40;;;9.90;99.90;;;-148.53;100.00;63986.66;5050003;28;20029;-78
2023/05/20 03:57:47;;;;;;;5.47;2.25;;;9.90;99.90;;;-148.53;100.00;63986.66;5084072;28;20488;-78
2023/05/20 04:00:13;;;;;;;5.13;2.25;;;10.00;99.90;;;-148.53;100.00;63986.66;5055716;28;20119;-78
2023/05/20 04:02:46;;;;;;;4.30;2.10;;;10.00;99.90;;;-148.53;100.00;63986.66;5050779;28;20043;-78
2023/05/20 04:05:16;;;;;;;4.22;2.47;;;10.10;99.90;;;-148.53;100.00;63986.66;5066567;28;21851;-78
2023/05/20 04:07:42;;;;;;;5.88;2.10;;;10.20;99.90;;;-148.53;100.00;63986.66;5055305;28;20129;-78
2023/05/20 04:10:08;;;;;;;4.82;2.10;;;10.20;99.90;;;-148.53;100.00;63986.66;5060961;28;20067;-78
2023/05/20 04:12:37;;;;;;;5.00;2.10;;;10.30;99.90;;;-148.53;100.00;63986.66;5049553;28;20106;-79
2023/05/20 04:15:03;;;;;;;;;;;10.40;99.90;;;-148.53;100.00;63986.66;5054165;28;20029;-78
2023/05/20 04:17:37;;;;;;;4.68;2.13;;;10.40;99.90;;;-148.53;100.00;63986.66;5066429;28;19963;-79
2023/05/20 04:20:05;;;;;;;4.60;1.95;;;10.50;99.90;;;-148.53;100.00;63986.66;5057041;28;20035;-78
2023/05/20 04:22:33;;;;;;;4.40;1.92;;;10.60;99.90;;;-148.53;100.00;63986.66;5063576;28;20060;-77
2023/05/20 04:24:59;;;;;;;3.55;2.13;;;10.60;99.90;;;-148.53;100.00;63986.66;5076108;28;20029;-78
2023/05/20 04:27:25;;;;;;;4.13;1.92;;;10.70;99.90;;;-148.53;100.00;63986.66;5051361;28;20107;-78
2023/05/20 04:29:53;;;;;;;3.85;1.80;;;10.80;99.90;;;-148.53;100.00;63986.66;5051386;28;20445;-78
2023/05/20 04:32:19;;;;;;;3.40;1.90;;;10.90;99.90;;;-148.53;100.00;63986.66;5050404;28;20435;-78
2023/05/20 04:34:47;;;;;;;5.95;2.10;;;11.00;99.90;;;-148.53;100.00;63986.66;5057275;28;20036;-79
2023/05/20 04:37:13;;;;;;;4.03;2.10;;;11.10;99.90;;;-148.53;100.00;63986.66;5057317;28;20029;-79
2023/05/20 04:39:42;;;;;;;4.30;1.95;;;11.10;99.90;;;-148.53;100.00;63986.66;5064672;28;20040;-79
2023/05/20 04:42:08;;;;;;;3.38;1.95;;;11.20;99.90;;;-148.53;100.00;63986.66;5067654;28;20066;-79
2023/05/20 04:44:34;;;;;;;4.05;2.17;;;11.30;99.90;;;-148.53;100.00;63986.66;5056022;28;20029;-80
2023/05/20 04:47:00;;;;;;;6.55;2.10;;;11.30;99.90;;;-148.53;100.00;63986.66;5062123;28;20093;-81
2023/05/20 04:49:26;;;;;;;5.72;2.10;;;11.40;99.90;;;-148.53;100.00;63986.66;5067387;28;20028;-82
2023/05/20 04:51:54;;;;;;;3.63;1.83;;;11.40;99.90;;;-148.53;100.00;63986.66;5057998;28;20455;-80
2023/05/20 04:54:21;;;;;;;3.50;1.90;;;11.50;99.90;;;-148.53;100.00;63986.66;5058227;28;20029;-82
2023/05/20 04:56:47;;;;;;;5.40;2.23;;;11.60;99.90;;;-148.53;100.00;63986.66;5055753;28;20487;-79
2023/05/20 04:59:13;;;;;;;4.60;2.00;;;11.70;99.90;;;-148.53;100.00;63986.66;5056997;28;20821;-80
2023/05/20 05:01:40;;;;;;;4.95;2.20;;;11.80;99.90;;;-148.53;100.00;63986.66;5059410;28;20037;-79
2023/05/20 05:04:06;;;;;;;5.15;2.40;;;11.90;99.90;;;-148.53;100.00;63986.66;5057273;28;20108;-80
2023/05/20 05:06:31;;;;;;;3.83;2.30;;;11.90;99.90;;;-148.53;100.00;63986.66;5068226;28;20469;-79
2023/05/20 05:08:58;;;;;;;4.57;2.47;;;12.00;99.90;;;-148.53;100.00;63986.66;5089873;28;20115;-81
2023/05/20 05:11:25;;;;;;;5.40;2.20;;;12.10;99.90;;;-148.53;100.00;63986.66;5064191;28;20145;-80
2023/05/20 05:13:51;;;;;;;5.10;2.40;;;12.20;99.90;;;-148.53;100.00;63986.66;5069505;28;20041;-80
2023/05/20 05:16:19;;;;;;;4.80;2.13;;;12.30;99.90;;;-148.53;100.00;63986.66;5067815;28;20029;-83
2023/05/20 05:18:45;;;;;;;4.70;2.08;;;12.40;99.90;;;-148.53;100.00;63986.66;5086712;28;20033;-87
2023/05/20 05:21:11;;;;;;;6.07;2.35;;;12.50;99.90;;;-148.53;100.00;63986.66;5065174;28;20041;-86
2023/05/20 05:23:37;;;;;;;5.00;2.35;;;12.60;99.90;;;-148.53;100.00;63986.66;5048273;28;20033;-82
2023/05/20 05:26:03;;;;;;;4.30;2.72;;;12.60;99.90;;;-148.53;100.00;63986.66;5079143;28;20432;-87
2023/05/20 05:28:29;;;;;;;5.30;2.50;;;12.70;99.90;;;-148.53;100.00;63986.66;5068314;28;20136;-85
2023/05/20 05:30:56;;;;;;;5.20;2.65;;;12.80;99.90;;;-148.53;100.00;63986.66;5048765;28;20128;-85
2023/05/20 05:33:22;;;;;;;5.17;2.60;;;13.00;99.90;;;-148.53;100.00;63986.66;5050617;28;20056;-82
2023/05/20 05:35:49;;;;;;;5.93;2.67;;;12.90;99.90;;;-148.53;100.00;63986.66;5054690;28;20051;-82
2023/05/20 05:38:15;;;;;;;5.50;2.47;;;13.00;99.90;;;-148.53;100.00;63986.66;5070277;28;20037;-83
2023/05/20 05:40:40;;;;;;;5.65;2.60;;;13.10;99.90;;;-148.53;100.00;63986.66;5086277;28;20510;-85
2023/05/20 05:43:06;;;;;;;9.23;2.45;;;13.10;99.90;;;-148.53;100.00;63986.66;5077842;28;20572;-84
2023/05/20 05:45:33;;;;;;;4.38;2.30;;;13.20;99.90;;;-148.53;100.00;63986.66;5067405;28;20032;-83
2023/05/20 05:47:59;;;;;;;5.20;2.60;;;13.40;99.90;;;-148.53;100.00;63986.66;5062223;28;20037;-83
2023/05/20 05:50:25;;;;;;;4.78;2.80;;;13.50;99.90;;;-148.53;100.00;63986.66;5055743;28;20039;-83
2023/05/20 05:52:54;;;;;;;6.35;2.95;;;13.60;99.90;;;-148.53;100.00;63986.66;5087039;28;20188;-84
2023/05/20 05:55:20;;;;;;;6.93;2.90;;;13.70;99.90;;;-148.53;100.00;63986.66;5054092;28;20064;-82
2023/05/20 05:57:46;;;;;;;6.57;2.92;;;13.80;99.90;;;-148.53;100.00;63986.66;5053505;28;20055;-84
2023/05/20 06:00:15;;;;;;;5.53;3.22;;;13.80;99.90;;;-148.53;100.00;63986.66;5053655;28;20047;-83
2023/05/20 06:02:44;;;;;;;6.75;3.17;;;13.90;99.90;;;-148.53;100.00;63986.66;5059520;28;20438;-83
2023/05/20 06:05:11;;;;;;;;;;;13.90;99.90;;;-148.53;100.00;63986.66;5060742;28;20033;-83
2023/05/20 06:07:37;;;;;;;7.53;3.00;;;14.00;99.90;;;-148.53;100.00;63986.66;5063984;28;20334;-83
2023/05/20 06:10:03;;;;;;;5.75;3.10;;;14.00;99.90;;;-148.53;100.00;63986.66;5058983;28;20032;-82
2023/05/20 06:12:30;;;;;;;7.53;3.22;;;14.00;99.90;;;-148.53;100.00;63986.66;5057238;28;20033;-82
2023/05/20 06:14:55;;;;;;;5.97;3.53;;;14.10;99.90;;;-148.53;100.00;63986.66;5059116;28;20040;-84
2023/05/20 06:17:21;;;;;;;7.70;3.45;;;14.20;99.90;;;-148.53;100.00;63986.66;5065075;28;20040;-82
2023/05/20 06:19:48;;;;;;;5.32;3.00;;;14.40;99.90;;;-148.53;100.00;63986.66;5066265;28;20400;-82
2023/05/20 06:22:15;;;;;;;7.30;3.25;;;14.40;99.90;;;-148.53;100.00;63986.66;5045794;28;20029;-83
2023/05/20 06:24:40;;;;;;;6.45;3.10;;;14.50;99.90;;;-148.53;100.00;63986.66;5052706;28;20041;-80
2023/05/20 06:27:06;;;;;;;6.35;3.30;;;14.60;99.90;;;-148.53;100.00;63986.66;5057609;28;20068;-81
2023/05/20 06:29:32;;;;;;;6.05;3.60;;;14.80;99.90;;;-148.53;100.00;63986.66;5060958;28;20041;-81
2023/05/20 06:31:58;;;;;;;4.78;3.50;;;15.00;99.90;;;-148.53;100.00;63986.66;5056977;28;20057;-81
2023/05/20 06:34:25;;;;;;;7.13;3.50;;;15.20;99.90;;;-148.53;100.00;63986.66;5090217;28;20066;-81
2023/05/20 06:36:52;;;;;;;6.18;3.38;;;15.20;99.90;;;-148.53;100.00;63986.66;5061022;28;20297;-83
2023/05/20 06:39:17;;;;;;;6.18;3.40;;;15.40;99.90;;;-148.53;100.00;63986.66;5061685;28;20165;-82
2023/05/20 06:41:44;;;;;;;7.27;3.87;;;15.60;99.90;;;-148.53;100.00;63986.66;5063299;28;20071;-81
2023/05/20 06:44:18;;;;;;;5.32;3.55;;;15.70;99.90;;;-148.53;100.00;63986.66;5057513;28;20050;-82
2023/05/20 06:47:10;;;;;;;7.47;3.58;;;16.00;99.90;;;-148.53;100.00;63986.66;5046624;28;20412;-82
2023/05/20 06:49:36;;;;;;;6.35;3.50;;;16.60;99.90;;;-148.53;100.00;63986.66;5053973;28;20037;-82
2023/05/20 06:52:04;;;;;;;7.20;3.63;;;17.00;99.90;;;-148.53;100.00;63986.66;5068901;28;20064;-82
2023/05/20 06:54:30;;;;;;;6.10;3.28;;;17.30;99.90;;;-148.53;100.00;63986.66;5061446;28;20079;-82
2023/05/20 06:56:55;;;;;;;5.82;3.40;;;17.40;99.90;;;-148.53;100.00;63986.66;5051843;28;20121;-81
2023/05/20 06:59:22;;;;;;;5.90;3.38;;;17.50;99.90;;;-148.53;100.00;63986.66;5063485;28;20139;-82
2023/05/20 07:01:47;;;;;;;6.47;3.60;;;17.70;99.90;;;-148.53;100.00;63986.66;5055128;28;20041;-82
2023/05/20 07:04:13;;;;;;;6.78;4.13;;;17.80;99.90;;;-148.53;100.00;63986.66;5050964;28;20032;-83
2023/05/20 07:06:39;;;;;;;6.03;3.55;;;17.90;99.90;;;-148.53;100.00;63986.66;5089698;28;20098;-81
2023/05/20 07:09:05;;;;;;;7.25;3.70;;;18.00;99.90;;;-148.53;100.00;63986.66;5052652;28;20373;-82
2023/05/20 07:11:31;;;;;;;6.82;3.80;;;18.10;99.90;;;-148.53;100.00;63986.66;5057082;28;20041;-83
2023/05/20 07:13:58;;;;;;;6.85;3.88;;;18.00;99.90;;;-148.53;100.00;63986.66;5055828;28;20060;-81
2023/05/20 07:16:25;;;;;;;5.60;3.23;;;17.90;99.90;;;-148.53;100.00;63986.66;5050307;28;20085;-81
2023/05/20 07:18:53;;;;;;;5.18;3.47;;;17.60;99.90;;;-148.53;100.00;63986.66;5050507;28;20285;-81
2023/05/20 07:21:19;;;;;;;5.90;3.80;;;17.60;99.90;;;-148.53;100.00;63986.66;5050800;28;20549;-81
2023/05/20 07:23:56;;;;;;;6.70;3.70;;;17.70;99.90;;;-148.53;100.00;63986.66;5050724;28;20153;-81
2023/05/20 07:26:21;;;;;;;5.22;3.63;;;17.80;99.90;;;-148.53;100.00;63986.66;5038765;28;20165;-83
2023/05/20 07:28:47;;;;;;;7.85;4.18;;;18.20;99.90;;;-148.53;100.00;63986.66;5050862;28;20052;-83
2023/05/20 07:31:13;;;;;;;5.50;3.38;;;18.30;99.90;;;-148.53;100.00;63986.66;5055904;28;20090;-83
2023/05/20 07:33:43;;;;;;;6.20;3.13;;;18.30;99.90;;;-148.53;100.00;63986.66;5050317;28;20037;-83
2023/05/20 07:36:09;;;;;;;5.72;2.90;;;18.30;99.90;;;-148.53;100.00;63986.66;5067528;28;20025;-83
2023/05/20 07:38:35;;;;;;;5.72;3.20;;;18.40;99.90;;;-148.53;100.00;63986.66;5053591;28;20064;-81
2023/05/20 07:41:06;;;;;;;5.15;3.22;;;18.30;99.90;;;-148.53;100.00;63986.66;5051783;28;20443;-82
2023/05/20 07:43:32;;;;;;;5.38;3.13;;;18.10;99.90;;;-148.53;100.00;63986.66;5067129;28;20029;-82
2023/05/20 07:45:58;;;;;;;5.22;2.90;;;17.90;99.90;;;-148.53;100.00;63986.66;5050510;28;20086;-82
2023/05/20 07:48:24;;;;;;;5.28;2.92;;;17.70;99.90;;;-148.53;100.00;63986.66;5050733;28;20039;-80
2023/05/20 07:50:50;;;;;;;5.88;3.33;;;17.60;99.90;;;-148.53;100.00;63986.66;5083545;28;20033;-82
2023/05/20 07:53:17;;;;;;;7.65;3.20;;;17.80;99.90;;;-148.53;100.00;63986.66;5064818;28;20044;-82
2023/05/20 07:55:43;;;;;;;5.28;3.00;;;18.00;99.90;;;-148.53;100.00;63986.66;5050211;28;20409;-81
2023/05/20 07:58:09;;;;;;;9.35;3.58;;;18.00;99.90;;;-148.53;100.00;63986.66;5053861;28;20055;-83
2023/05/20 08:00:35;;;;;;;6.00;3.60;;;18.10;99.90;;;-148.53;100.00;63986.66;5070628;28;20029;-82
2023/05/20 08:03:04;;;;;;;5.72;3.20;;;18.00;99.90;;;-148.53;100.00;63986.66;5074249;28;20040;-82
2023/05/20 08:05:40;;;;;;;7.35;3.10;;;18.20;99.90;;;-148.53;100.00;63986.66;5064925;28;20033;-81
2023/05/20 08:08:06;;;;;;;5.85;3.42;;;18.40;99.90;;;-148.53;100.00;63986.66;5056128;28;20132;-81
2023/05/20 08:10:43;;;;;;;5.60;3.00;;;18.80;99.90;;;-148.53;100.00;63986.66;5069194;28;20468;-81
2023/05/20 08:13:09;;;;;;;5.20;2.97;;;19.20;99.90;;;-148.53;100.00;63986.66;5057253;28;20029;-80
2023/05/20 08:15:35;;;;;;;5.13;2.88;;;19.50;99.90;;;-148.53;100.00;63986.66;5061037;28;20169;-82
2023/05/20 08:18:01;;;;;;;6.07;2.80;;;19.60;99.00;;;-148.53;100.00;63986.66;5066258;28;20048;-81
2023/05/20 08:20:28;;;;;;;5.30;3.10;;;19.60;98.40;;;-148.53;100.00;63986.66;5057860;28;20326;-82
2023/05/20 08:22:57;;;;;;;5.40;3.35;;;19.50;98.50;;;-148.53;100.00;63986.66;5065795;28;20025;-82
2023/05/20 08:25:23;;;;;;;5.43;2.75;;;19.80;98.80;;;-148.53;100.00;63986.66;5050556;28;20507;-83
2023/05/20 08:27:50;;;;;;;4.40;2.50;;;19.80;98.60;;;-148.53;100.00;63986.66;5038885;28;20037;-81
2023/05/20 08:30:16;;;;;;;7.00;3.35;;;20.00;98.90;;;-148.53;100.00;63986.66;5059929;28;20075;-82
2023/05/20 08:32:42;;;;;;;5.50;3.63;;;19.60;98.60;;;-148.53;100.00;63986.66;5054742;28;20484;-82
2023/05/20 08:35:08;;;;;;;5.20;3.10;;;19.40;98.10;;;-148.53;100.00;63986.66;5055157;28;20506;-82
2023/05/20 08:37:34;;;;;;;5.53;3.53;;;19.00;98.40;;;-148.53;100.00;63986.66;5037928;28;20056;-81
2023/05/20 08:40:00;;;;;;;7.00;3.25;;;19.00;99.40;;;-148.53;100.00;63986.66;5054408;28;20047;-82
2023/05/20 08:42:25;;;;;;;5.82;3.10;;;18.90;98.60;;;-148.53;100.00;63986.66;5087612;28;20055;-82
2023/05/20 08:44:57;;;;;;;4.75;3.42;;;18.70;99.30;;;-148.53;100.00;63986.66;5056876;28;20041;-82
2023/05/20 08:47:25;;;;;;;4.97;2.95;;;18.50;99.70;;;-148.53;100.00;63986.66;5054118;28;20044;-82
2023/05/20 08:49:51;;;;;;;6.97;3.40;;;18.70;99.90;;;-148.53;100.00;63986.66;5060790;28;20037;-82
2023/05/20 08:52:20;;;;;;;4.82;3.03;;;18.80;99.40;;;-148.53;100.00;63986.66;5092537;28;20056;-81
2023/05/20 08:54:49;;;;;;;6.03;3.17;;;18.70;99.90;;;-148.53;100.00;63986.66;5076959;28;20369;-82
2023/05/20 08:57:15;;;;;;;6.85;3.08;;;18.80;99.10;;;-148.53;100.00;63986.66;5054694;28;20409;-82
2023/05/20 08:59:48;;;;;;;4.47;2.90;;;18.70;99.10;;;-148.53;100.00;63986.66;5060356;28;20075;-81
2023/05/20 09:02:14;;;;;;;6.35;3.08;;;18.50;99.80;;;-148.53;100.00;63986.66;5058750;28;20059;-82
2023/05/20 09:04:40;;;;;;;4.38;2.88;;;18.60;99.70;;;-148.53;100.00;63986.66;5061997;28;20041;-81
2023/05/20 09:07:05;;;;;;;5.22;3.28;;;18.50;99.70;;;-148.53;100.00;63986.66;5057629;28;20035;-83
2023/05/20 09:09:34;;;;;;;5.28;3.03;;;18.40;99.10;;;-148.53;100.00;63986.66;5057610;28;20040;-83
2023/05/20 09:12:02;;;;;;;4.63;3.08;;;18.10;98.90;;;-148.53;100.00;63986.66;5055942;28;20064;-82
2023/05/20 09:14:29;;;;;;;4.72;2.63;;;18.00;99.80;;;-148.53;100.00;63986.66;5062829;28;20040;-82
2023/05/20 09:16:55;;;;;;;4.03;2.80;;;17.90;99.90;;;-148.53;100.00;63986.66;5058506;28;20064;-83
2023/05/20 09:19:24;;;;;;;8.85;2.83;;;17.80;99.90;;;-148.53;100.00;63986.66;5070384;28;20036;-80
2023/05/20 09:21:57;;;;;;;6.05;3.13;;;17.70;99.90;;;-148.53;100.00;63986.66;5058208;28;20207;-81
2023/05/20 09:24:24;;;;;;;4.95;2.47;;;17.60;99.90;;;-148.53;100.00;63986.66;5054599;28;20040;-83
2023/05/20 09:26:51;;;;;;;4.72;2.60;;;17.80;99.90;;;-148.53;100.00;63986.66;5053693;28;20033;-81
2023/05/20 09:29:20;;;;;;;4.25;2.80;;;18.00;99.90;;;-148.53;100.00;63986.66;5060030;28;20047;-80
2023/05/20 09:31:47;;;;;;;5.72;2.88;;;18.30;99.80;;;-148.53;100.00;63986.66;5058108;28;20033;-82
2023/05/20 09:34:13;;;;;;;4.88;2.60;;;18.50;99.50;;;-148.53;100.00;63986.66;5058215;28;20388;-82
2023/05/20 09:36:42;;;;;;;4.90;2.70;;;18.70;99.90;;;-148.53;100.00;63986.66;5061503;28;20171;-84
2023/05/20 09:39:22;;;;;;;4.00;2.35;;;18.90;98.90;;;-148.53;100.00;63986.66;5053487;28;20037;-82
2023/05/20 09:42:03;;;;;;;4.53;2.40;;;18.90;99.10;;;-148.53;100.00;63986.66;5054237;28;20048;-83
2023/05/20 09:44:29;;;;;;;4.10;2.50;;;18.80;98.40;;;-148.53;100.00;63986.66;5053410;28;20436;-81
2023/05/20 09:46:56;;;;;;;5.57;2.90;;;19.10;98.40;;;-148.53;100.00;63986.66;5061947;28;20040;-82
2023/05/20 09:49:23;;;;;;;4.77;2.67;;;;;;;-148.53;100.00;63986.66;5056288;28;20047;-82
2023/05/20 09:51:51;;;;;;;4.80;2.72;;;;;;;-148.53;100.00;63986.66;5053247;28;20044;-81
2023/05/20 09:54:18;;;;;;;9.35;2.80;;;19.50;98.10;;;-148.53;100.00;63986.66;5067319;28;20132;-82
2023/05/20 09:56:46;;;;;;;4.22;2.42;;;21.10;96.20;;;-148.53;100.00;63986.66;5062286;28;20040;-83
2023/05/20 09:59:16;;;;;;;4.20;2.38;;;21.30;94.90;;;-148.53;100.00;63986.66;5056795;28;20060;-83
2023/05/20 10:01:44;;;;;;;5.65;2.47;;;21.20;94.90;;;-148.53;100.00;63986.66;5055564;28;20044;-81
2023/05/20 10:04:14;;;;;;;5.75;2.53;;;20.80;95.50;;;-148.53;100.00;63986.66;5065052;28;20029;-81